KMIE

Delaware County Regional Airport

Muncie, Indiana, USA
METAR KMIE 171953Z 20010KT 10SM FEW060 SCT070 OVC085 07/02 A3005 RMK AO2 RAE02 SLP178 P0000 T00670017
Observed Flight Rules
Dec-17 @ 19:53 UTC (an hour ago) Visual Flight Rules
Wind Visibility Clouds
200° at 10 knots 10 miles
  • Few at 6,000' AGL
  • Scattered at 7,000' AGL
  • Overcast at 8,500' AGL
Temperatures Readings Precipitation
Current 7°C / 45°F
Dewpoint 2°C / 36°F
Humidity 71%
Altimeter 30.05" Hg
Pressure 1017.8 hPa
Elevation 285
Current Rain 0.005
METAR KMIE 171953Z 20010KT 10SM FEW060 SCT070 OVC085 07/02 A3005 RMK AO2 RAE02 SLP178 P0000 T00670017
Observed Flight Rules
Dec-17 @ 19:53 UTC
(an hour ago)
VFR
Wind Visibility
200° at 10 knots 10 miles
Clouds
  • Few at 6,000' AGL
  • Scattered at 7,000' AGL
  • Overcast at 8,500' AGL
Temperature Dewpoint
7°C / 45°F 2°C / 36°F
Humidity Altimeter Pressure
71% 30.05" Hg 1017.8 hPa
Current Rain
0.005